createdAt,value
2022-12-06T00:00:48.824Z,7.25
2022-12-06T00:03:56.041Z,5.72
2022-12-06T00:06:58.413Z,5.30
2022-12-06T00:10:00.030Z,5.88
2022-12-06T00:13:03.219Z,5.85
2022-12-06T00:16:07.570Z,5.35
2022-12-06T00:19:11.530Z,4.80
2022-12-06T00:22:13.019Z,6.15
2022-12-06T00:25:14.566Z,6.03
2022-12-06T00:28:16.107Z,6.47
2022-12-06T00:31:19.816Z,5.88
2022-12-06T00:34:21.469Z,5.65
2022-12-06T00:37:22.966Z,5.20
2022-12-06T00:40:24.540Z,5.15
2022-12-06T00:43:27.092Z,5.03
2022-12-06T00:46:30.424Z,6.82
2022-12-06T00:49:31.927Z,5.90
2022-12-06T00:52:33.529Z,5.80
2022-12-06T00:55:34.997Z,5.32
2022-12-06T00:58:36.583Z,5.60
2022-12-06T01:01:38.161Z,5.32
2022-12-06T01:04:39.645Z,4.88
2022-12-06T01:07:41.218Z,5.45
2022-12-06T01:10:42.875Z,4.95
2022-12-06T01:13:44.452Z,6.43
2022-12-06T01:16:45.977Z,5.03
2022-12-06T01:19:49.762Z,4.90
2022-12-06T01:22:51.250Z,4.25
2022-12-06T01:25:52.780Z,6.15
2022-12-06T01:28:54.892Z,5.78
2022-12-06T01:31:56.382Z,5.20
2022-12-06T01:34:57.939Z,6.13
2022-12-06T01:38:04.462Z,4.75
2022-12-06T01:41:07.496Z,4.82
2022-12-06T01:44:40.029Z,4.50
2022-12-06T01:47:43.603Z,5.35
2022-12-06T01:50:45.151Z,4.97
2022-12-06T01:53:49.355Z,4.38
2022-12-06T01:56:53.527Z,4.28
2022-12-06T01:59:55.046Z,5.15
2022-12-06T02:03:01.274Z,5.03
2022-12-06T02:06:06.021Z,4.35
2022-12-06T02:09:10.076Z,5.90
2022-12-06T02:12:14.123Z,4.35
2022-12-06T02:15:15.709Z,4.70
2022-12-06T02:18:41.166Z,4.88
2022-12-06T02:22:07.416Z,5.30
2022-12-06T02:25:38.352Z,4.40
2022-12-06T02:29:01.630Z,4.60
2022-12-06T02:32:17.535Z,4.25
2022-12-06T02:35:25.022Z,3.78
2022-12-06T02:38:34.544Z,4.45
2022-12-06T02:41:45.619Z,3.97
2022-12-06T02:44:53.855Z,4.70
2022-12-06T02:47:59.857Z,4.22
2022-12-06T02:51:07.103Z,4.80
2022-12-06T02:54:11.716Z,4.40
2022-12-06T02:57:13.731Z,3.97
2022-12-06T03:00:36.307Z,4.22
2022-12-06T03:03:56.008Z,4.15
2022-12-06T03:07:10.432Z,3.58
2022-12-06T03:10:32.089Z,4.28
2022-12-06T03:13:46.276Z,4.28
2022-12-06T03:16:48.858Z,4.13
2022-12-06T03:19:58.706Z,3.63
2022-12-06T03:23:06.546Z,3.90
2022-12-06T03:26:11.444Z,3.97
2022-12-06T03:29:16.799Z,3.90
2022-12-06T03:32:22.897Z,3.70
2022-12-06T03:35:29.278Z,3.70
2022-12-06T03:39:14.523Z,4.00
2022-12-06T03:42:17.710Z,3.15
2022-12-06T03:45:22.511Z,3.50
2022-12-06T03:48:34.879Z,3.60
2022-12-06T03:51:38.765Z,3.47
2022-12-06T03:54:41.586Z,3.60
2022-12-06T03:57:44.898Z,3.92
2022-12-06T04:00:46.516Z,3.40
2022-12-06T04:03:48.272Z,3.53
2022-12-06T04:06:49.865Z,4.60
2022-12-06T04:10:03.222Z,4.13
2022-12-06T04:13:06.078Z,3.65
2022-12-06T04:16:28.502Z,3.60
2022-12-06T04:19:30.151Z,3.60
2022-12-06T04:22:50.046Z,3.40
2022-12-06T04:25:51.566Z,3.75
2022-12-06T04:29:12.604Z,3.80
2022-12-06T04:32:32.544Z,3.95
2022-12-06T04:35:52.437Z,4.22
2022-12-06T04:38:53.993Z,4.00
2022-12-06T04:42:14.115Z,5.72
2022-12-06T04:45:15.729Z,3.70
2022-12-06T04:48:17.192Z,4.90
2022-12-06T04:51:18.751Z,3.75
2022-12-06T04:54:21.283Z,4.55
2022-12-06T04:57:22.742Z,4.57
2022-12-06T05:00:24.208Z,4.07
2022-12-06T05:03:25.830Z,6.07
2022-12-06T05:06:27.555Z,4.00
2022-12-06T05:09:29.095Z,3.67
2022-12-06T05:12:30.581Z,4.93
2022-12-06T05:15:33.155Z,3.47
2022-12-06T05:18:34.908Z,4.25
2022-12-06T05:21:36.399Z,3.47
2022-12-06T05:24:37.863Z,3.25
2022-12-06T05:27:39.430Z,4.38
2022-12-06T05:30:40.947Z,3.75
2022-12-06T05:33:42.468Z,3.35
2022-12-06T05:36:45.822Z,4.78
2022-12-06T05:39:47.314Z,3.60
2022-12-06T05:42:49.697Z,3.58
2022-12-06T05:45:54.443Z,3.25
2022-12-06T05:48:55.923Z,2.70
2022-12-06T05:52:02.510Z,3.38
2022-12-06T05:55:05.576Z,3.83
2022-12-06T05:58:07.312Z,3.15
2022-12-06T06:01:09.439Z,3.25
2022-12-06T06:04:11.003Z,2.70
2022-12-06T06:07:12.508Z,3.67
2022-12-06T06:10:16.008Z,2.90
2022-12-06T06:13:17.508Z,3.40
2022-12-06T06:16:19.001Z,3.40
2022-12-06T06:19:23.726Z,3.88
2022-12-06T06:22:25.286Z,3.58
2022-12-06T06:25:26.821Z,4.88
2022-12-06T06:28:28.319Z,2.90
2022-12-06T06:31:29.815Z,3.00
2022-12-06T06:34:31.407Z,5.32
2022-12-06T06:37:33.564Z,3.88
2022-12-06T06:40:35.625Z,3.40
2022-12-06T06:43:37.198Z,3.55
2022-12-06T06:46:39.286Z,5.72
2022-12-06T06:49:41.205Z,3.20
2022-12-06T06:52:42.724Z,3.22
2022-12-06T06:55:44.943Z,3.05
2022-12-06T06:58:46.448Z,2.60
2022-12-06T07:01:48.080Z,3.42
2022-12-06T07:04:49.882Z,3.30
2022-12-06T07:07:51.557Z,3.42
2022-12-06T07:10:54.213Z,2.85
2022-12-06T07:13:55.706Z,4.28
2022-12-06T07:16:57.284Z,3.42
2022-12-06T07:19:58.984Z,2.95
2022-12-06T07:23:00.711Z,2.47
2022-12-06T07:26:10.740Z,2.85
2022-12-06T07:29:12.224Z,3.22
2022-12-06T07:32:13.706Z,2.60
2022-12-06T07:35:15.207Z,2.78
2022-12-06T07:38:16.709Z,3.25
2022-12-06T07:41:38.697Z,2.45
2022-12-06T07:45:03.160Z,2.78
2022-12-06T07:48:05.792Z,2.55
2022-12-06T07:51:07.525Z,2.80
2022-12-06T07:54:09.266Z,2.63
2022-12-06T07:57:10.861Z,3.35
2022-12-06T08:00:15.719Z,3.08
2022-12-06T08:03:17.675Z,2.20
2022-12-06T08:06:19.152Z,2.42
2022-12-06T08:09:20.987Z,4.55
2022-12-06T08:12:22.682Z,1.85
2022-12-06T08:15:24.262Z,2.92
2022-12-06T08:18:26.054Z,3.17
2022-12-06T08:21:27.653Z,2.45
2022-12-06T08:24:29.279Z,2.75
2022-12-06T08:27:30.816Z,3.00
2022-12-06T08:30:32.445Z,2.33
2022-12-06T08:33:34.807Z,2.83
2022-12-06T08:36:38.316Z,2.90
2022-12-06T08:39:39.791Z,3.13
2022-12-06T08:42:43.372Z,2.38
2022-12-06T08:45:50.260Z,2.88
2022-12-06T08:48:52.089Z,3.13
2022-12-06T08:51:54.306Z,2.80
2022-12-06T08:54:55.768Z,2.78
2022-12-06T08:57:57.253Z,3.13
2022-12-06T09:00:58.855Z,2.85
2022-12-06T09:04:01.940Z,2.50
2022-12-06T09:07:07.421Z,2.45
2022-12-06T09:10:11.810Z,2.90
2022-12-06T09:13:13.373Z,3.00
2022-12-06T09:16:17.878Z,2.70
2022-12-06T09:19:20.283Z,2.72
2022-12-06T09:22:21.784Z,2.60
2022-12-06T09:25:23.276Z,2.42
2022-12-06T09:28:24.768Z,2.55
2022-12-06T09:31:26.360Z,2.60
2022-12-06T09:34:27.913Z,2.60
2022-12-06T09:37:29.619Z,2.63
2022-12-06T09:40:32.633Z,3.03
2022-12-06T09:43:47.714Z,2.20
2022-12-06T09:47:00.301Z,2.95
2022-12-06T09:50:20.027Z,2.63
2022-12-06T09:53:42.874Z,3.30
2022-12-06T09:57:23.155Z,2.72
2022-12-06T10:00:25.823Z,2.50
2022-12-06T10:03:35.505Z,2.67
2022-12-06T10:06:44.583Z,3.78
2022-12-06T10:10:10.518Z,2.80
2022-12-06T10:13:37.068Z,3.63
2022-12-06T10:17:16.083Z,4.87
2022-12-06T10:20:44.044Z,3.58
2022-12-06T10:23:45.458Z,3.20
2022-12-06T10:26:55.374Z,2.72
2022-12-06T10:30:01.585Z,2.90
2022-12-06T10:36:49.297Z,3.42
2022-12-06T10:40:01.269Z,3.15
2022-12-06T10:43:18.862Z,2.42
2022-12-06T10:46:45.221Z,2.50
2022-12-06T10:50:04.840Z,2.67
2022-12-06T10:53:18.791Z,3.40
2022-12-06T10:56:27.732Z,3.22
2022-12-06T10:59:51.605Z,3.13
2022-12-06T11:03:11.877Z,3.33
2022-12-06T11:06:22.111Z,3.45
2022-12-06T11:09:34.008Z,4.45
2022-12-06T11:12:39.000Z,4.25
2022-12-06T11:15:46.426Z,2.88
2022-12-06T11:18:48.838Z,3.67
2022-12-06T11:21:58.869Z,3.70
2022-12-06T11:25:19.055Z,3.10
2022-12-06T11:28:37.516Z,3.08
2022-12-06T11:31:52.504Z,4.47
2022-12-06T11:34:56.700Z,3.80
2022-12-06T11:38:02.127Z,3.33
2022-12-06T11:41:08.072Z,4.72
2022-12-06T11:44:18.455Z,3.22
2022-12-06T11:47:22.252Z,3.92
2022-12-06T11:50:25.864Z,2.72
2022-12-06T11:53:36.977Z,3.13
2022-12-06T11:56:38.991Z,3.85
2022-12-06T12:00:08.258Z,2.90
2022-12-06T12:03:28.445Z,4.70
2022-12-06T12:06:30.120Z,3.38
2022-12-06T12:09:37.118Z,3.30
2022-12-06T12:13:08.029Z,3.10
2022-12-06T12:16:15.433Z,2.83
2022-12-06T12:19:40.801Z,4.10
2022-12-06T12:22:42.818Z,4.20
2022-12-06T12:25:59.937Z,3.92
2022-12-06T12:29:12.669Z,3.97
2022-12-06T12:32:18.254Z,4.75
2022-12-06T12:35:25.370Z,5.90
2022-12-06T12:38:47.062Z,4.97
2022-12-06T12:41:48.658Z,3.20
2022-12-06T12:44:50.273Z,3.47
2022-12-06T12:48:23.188Z,4.82
2022-12-06T12:51:36.612Z,4.00
2022-12-06T12:54:38.636Z,5.13
2022-12-06T12:57:41.573Z,4.03
2022-12-06T13:00:47.774Z,4.55
2022-12-06T13:03:52.886Z,4.40
2022-12-06T13:06:57.791Z,4.43
2022-12-06T13:10:07.160Z,4.32
2022-12-06T13:13:20.550Z,3.70
2022-12-06T13:16:28.139Z,3.75
2022-12-06T13:19:38.447Z,3.47
2022-12-06T13:22:45.158Z,3.65
2022-12-06T13:25:58.587Z,3.63
2022-12-06T13:29:04.925Z,4.13
2022-12-06T13:32:20.371Z,5.10
2022-12-06T13:35:32.246Z,4.70
2022-12-06T13:38:36.618Z,5.75
2022-12-06T13:41:59.426Z,4.43
2022-12-06T13:45:01.158Z,5.38
2022-12-06T13:48:02.691Z,3.95
2022-12-06T13:51:34.261Z,4.80
2022-12-06T13:54:35.924Z,4.72
2022-12-06T13:57:37.454Z,3.60
2022-12-06T14:00:41.667Z,4.00
2022-12-06T14:03:55.624Z,3.60
2022-12-06T14:10:13.311Z,4.13
2022-12-06T14:13:20.284Z,5.03
2022-12-06T14:16:34.050Z,3.58
2022-12-06T14:19:44.739Z,4.00
2022-12-06T14:22:48.133Z,5.85
2022-12-06T14:25:49.650Z,4.72
2022-12-06T14:28:53.372Z,5.18
2022-12-06T14:31:54.832Z,3.95
2022-12-06T14:35:06.221Z,4.13
2022-12-06T14:38:28.963Z,3.42
2022-12-06T14:41:56.845Z,4.57
2022-12-06T14:45:02.292Z,4.72
2022-12-06T14:48:04.816Z,4.45
2022-12-06T14:51:06.459Z,4.40
2022-12-06T14:54:16.901Z,4.72
2022-12-06T14:57:24.392Z,4.18
2022-12-06T15:00:47.359Z,5.22
2022-12-06T15:04:06.828Z,9.70
2022-12-06T15:07:38.970Z,4.93
2022-12-06T15:10:40.547Z,3.45
2022-12-06T15:13:42.030Z,2.45
2022-12-06T15:16:46.058Z,3.15
2022-12-06T15:19:52.639Z,3.30
2022-12-06T15:25:56.079Z,4.60
2022-12-06T15:28:57.550Z,4.07
2022-12-06T15:31:59.361Z,7.40
2022-12-06T15:35:00.906Z,3.42
2022-12-06T15:38:02.378Z,3.38
2022-12-06T15:41:04.391Z,2.95
2022-12-06T15:44:06.051Z,3.22
2022-12-06T15:47:10.589Z,3.45
2022-12-06T15:50:15.411Z,4.03
2022-12-06T15:53:26.652Z,3.42
2022-12-06T15:56:29.862Z,2.75
2022-12-06T15:59:31.318Z,1.95
2022-12-06T16:02:33.404Z,2.78
2022-12-06T16:05:35.495Z,4.55
2022-12-06T16:08:36.942Z,4.55
2022-12-06T16:11:38.793Z,4.50
2022-12-06T16:14:40.291Z,3.05
2022-12-06T16:17:41.813Z,3.33
2022-12-06T16:20:43.379Z,4.57
2022-12-06T16:24:13.487Z,3.33
2022-12-06T16:27:15.533Z,3.72
2022-12-06T16:30:29.815Z,3.85
2022-12-06T16:33:31.547Z,4.50
2022-12-06T16:36:34.015Z,5.80
2022-12-06T16:39:35.700Z,6.90
2022-12-06T16:42:37.425Z,6.53
2022-12-06T16:45:41.076Z,4.38
2022-12-06T16:48:42.546Z,3.55
2022-12-06T16:51:44.072Z,5.18
2022-12-06T16:54:45.659Z,4.90
2022-12-06T16:57:47.654Z,6.20
2022-12-06T17:00:49.157Z,5.95
2022-12-06T17:03:52.235Z,8.55
2022-12-06T17:06:53.751Z,6.22
2022-12-06T17:09:55.343Z,3.33
2022-12-06T17:12:56.832Z,3.25
2022-12-06T17:15:58.343Z,4.20
2022-12-06T17:19:00.259Z,4.25
2022-12-06T17:22:06.183Z,5.95
2022-12-06T17:25:09.599Z,5.80
2022-12-06T17:28:11.044Z,4.13
2022-12-06T17:31:12.828Z,7.10
2022-12-06T17:34:15.236Z,4.78
2022-12-06T17:37:16.829Z,6.57
2022-12-06T17:40:18.320Z,3.42
2022-12-06T17:43:19.765Z,3.25
2022-12-06T17:46:21.351Z,4.97
2022-12-06T17:49:24.934Z,5.45
2022-12-06T17:52:26.558Z,6.15
2022-12-06T17:55:28.158Z,3.70
2022-12-06T17:58:29.674Z,6.18
2022-12-06T18:01:58.124Z,3.13
2022-12-06T18:04:55.849Z,5.30
2022-12-06T18:07:57.480Z,5.03
2022-12-06T18:10:59.511Z,3.83
2022-12-06T18:14:01.988Z,3.63
2022-12-06T18:17:04.061Z,4.70
2022-12-06T18:20:08.867Z,3.75
2022-12-06T18:23:10.458Z,5.25
2022-12-06T18:26:13.509Z,3.20
2022-12-06T18:29:17.816Z,4.35
2022-12-06T18:32:19.366Z,3.85
2022-12-06T18:35:20.899Z,2.60
2022-12-06T18:38:22.386Z,5.07
2022-12-06T18:41:25.422Z,2.58
2022-12-06T18:44:26.907Z,3.58
2022-12-06T18:47:28.407Z,2.50
2022-12-06T18:50:29.893Z,2.65
2022-12-06T18:53:31.677Z,2.83
2022-12-06T18:56:34.485Z,2.20
2022-12-06T18:59:37.593Z,2.65
2022-12-06T19:02:39.290Z,3.83
2022-12-06T19:06:01.931Z,3.13
2022-12-06T19:09:09.633Z,3.22
2022-12-06T19:12:11.179Z,2.30
2022-12-06T19:15:13.930Z,2.60
2022-12-06T19:18:15.408Z,2.60
2022-12-06T19:21:17.797Z,8.73
2022-12-06T19:24:22.138Z,3.58
2022-12-06T19:27:23.620Z,3.10
2022-12-06T19:30:25.229Z,2.78
2022-12-06T19:33:27.242Z,2.88
2022-12-06T19:36:30.649Z,2.75
2022-12-06T19:39:32.222Z,3.88
2022-12-06T19:42:52.968Z,4.45
2022-12-06T19:45:54.518Z,2.65
2022-12-06T19:48:58.376Z,3.67
2022-12-06T19:52:00.480Z,5.32
2022-12-06T19:55:02.042Z,3.53
2022-12-06T19:58:03.568Z,2.83
2022-12-06T20:01:10.002Z,2.78
2022-12-06T20:07:17.284Z,2.22
2022-12-06T20:10:18.847Z,3.13
2022-12-06T20:13:24.256Z,1.50
2022-12-06T20:16:25.904Z,1.92
2022-12-06T20:19:27.726Z,2.05
2022-12-06T20:22:29.214Z,1.73
2022-12-06T20:25:30.676Z,2.70
2022-12-06T20:28:32.186Z,2.05
2022-12-06T20:31:35.197Z,2.13
2022-12-06T20:34:36.813Z,2.03
2022-12-06T20:37:38.365Z,2.13
2022-12-06T20:40:40.010Z,2.15
2022-12-06T20:43:42.469Z,2.25
2022-12-06T20:46:44.214Z,2.58
2022-12-06T20:49:45.851Z,2.83
2022-12-06T20:52:47.516Z,2.55
2022-12-06T20:55:48.988Z,2.55
2022-12-06T20:58:53.173Z,1.92
2022-12-06T21:01:54.963Z,1.98
2022-12-06T21:04:58.012Z,1.42
2022-12-06T21:07:59.626Z,3.25
2022-12-06T21:14:23.729Z,2.35
2022-12-06T21:17:25.233Z,3.10
2022-12-06T21:20:26.719Z,2.80
2022-12-06T21:23:28.932Z,2.53
2022-12-06T21:26:31.301Z,2.60
2022-12-06T21:29:32.798Z,2.08
2022-12-06T21:32:34.291Z,2.22
2022-12-06T21:35:36.920Z,1.55
2022-12-06T21:38:38.793Z,1.50
2022-12-06T21:41:41.045Z,2.58
2022-12-06T21:44:42.552Z,3.53
2022-12-06T21:47:44.069Z,1.55
2022-12-06T21:50:45.538Z,1.95
2022-12-06T21:53:47.488Z,2.00
2022-12-06T21:56:48.999Z,1.92
2022-12-06T21:59:50.504Z,3.05
2022-12-06T22:02:53.716Z,1.83
2022-12-06T22:05:55.265Z,1.30
2022-12-06T22:08:59.712Z,2.60
2022-12-06T22:12:01.397Z,1.70
2022-12-06T22:15:03.193Z,1.85
2022-12-06T22:18:04.798Z,1.30
2022-12-06T22:21:11.937Z,1.98
2022-12-06T22:24:13.480Z,1.75
2022-12-06T22:27:14.945Z,2.20
2022-12-06T22:30:16.443Z,2.40
2022-12-06T22:33:20.142Z,1.60
2022-12-06T22:36:22.332Z,1.45
2022-12-06T22:39:23.926Z,2.05
2022-12-06T22:42:25.424Z,2.00
2022-12-06T22:45:26.943Z,2.05
2022-12-06T22:48:28.435Z,3.88
2022-12-06T22:51:34.029Z,2.05
2022-12-06T22:54:35.507Z,2.60
2022-12-06T22:57:36.988Z,2.03
2022-12-06T23:00:38.467Z,1.95
2022-12-06T23:03:40.433Z,2.08
2022-12-06T23:06:42.007Z,2.83
2022-12-06T23:09:43.487Z,1.67
2022-12-06T23:12:44.986Z,2.40
2022-12-06T23:15:54.860Z,1.63
2022-12-06T23:18:56.809Z,1.83
2022-12-06T23:21:58.331Z,2.67
2022-12-06T23:24:59.877Z,2.17
2022-12-06T23:28:01.389Z,2.08
2022-12-06T23:31:09.992Z,1.70
2022-12-06T23:34:23.146Z,1.40
2022-12-06T23:37:24.658Z,2.35
2022-12-06T23:40:26.168Z,1.67
2022-12-06T23:43:27.659Z,2.15
2022-12-06T23:46:34.972Z,2.10
2022-12-06T23:49:36.590Z,2.83
2022-12-06T23:52:38.074Z,2.10
2022-12-06T23:55:39.599Z,1.67
2022-12-06T23:58:42.240Z,1.83
